Language: 


Des rapports , des résumés tant et plus, au choix de chacun....


Données Historiques de Météogheer
Journalier Rapport pour Octobre 12, 2017 Unitée:  Impériale    Métrique   Les deux
Suivant Jour »
Journalier Hebdomadaire Mensuel Annuel Sur mesure
  Max: Min: Moyenne:
Température: 67.1 °F 32 °F 57.6 °F
Point de rosée: 59 °F 48.2 °F 52.7 °F
Humidité: 98% 0% 79%
Vent: 16.8mph 0mph 5.2mph
Rafales: 20.1mph - -
Vent- - WSW
Pression: 30.2 in 0 in -
Pluie: 0 in    
Historical Graphs
 
 
Données tabulaires pour Octobre 12, 2017
Heure Température Point de rosée Pression Vent Vent Rafales Humidité Pluie Taux (Horaire) Conditions
00:00 61 °F 55.4 °F 29.9 in West 8.7 mph 12.1 mph 82% 0 in
00:05 61 °F 55.4 °F 29.9 in SSW 8.5 mph 17.7 mph 83% 0 in
00:10 61.2 °F 55.4 °F 29.9 in WSW 8.5 mph 17.7 mph 83% 0 in
00:15 61.3 °F 55.4 °F 29.9 in SW 13.6 mph 17.2 mph 83% 0 in
00:20 61.3 °F 55.4 °F 29.9 in SSW 12.8 mph 17.4 mph 82% 0 in
00:25 61.5 °F 55.4 °F 29.9 in SSW 10.1 mph 19.7 mph 82% 0 in
00:30 61.5 °F 55.4 °F 29.9 in WSW 13 mph 19.7 mph 83% 0 in
00:35 61.5 °F 55.4 °F 29.9 in WSW 10.3 mph 18.1 mph 83% 0 in
00:40 61.5 °F 55.4 °F 29.9 in SW 10.5 mph 18.1 mph 83% 0 in
00:45 61.7 °F 57.2 °F 29.9 in SSW 12.5 mph 20.1 mph 83% 0 in
00:50 61.7 °F 57.2 °F 29.9 in SW 11.2 mph 20.1 mph 83% 0 in
00:55 61.5 °F 55.4 °F 29.9 in SW 7.8 mph 17 mph 83% 0 in
01:00 61.5 °F 57.2 °F 29.9 in SW 12.8 mph 17.2 mph 84% 0 in
01:05 61.3 °F 57.2 °F 29.9 in WSW 11 mph 17.2 mph 86% 0 in
01:10 61.3 °F 57.2 °F 29.9 in SSW 13 mph 18.6 mph 86% 0 in
01:15 61.2 °F 57.2 °F 29.9 in West 8.5 mph 18.6 mph 88% 0 in
01:21 61 °F 57.2 °F 29.9 in WSW 10.1 mph 17 mph 89% 0 in
01:26 60.8 °F 57.2 °F 29.9 in WSW 16.8 mph 19.9 mph 90% 0 in
01:31 60.8 °F 59 °F 29.9 in West 11.4 mph 19.9 mph 91% 0 in
01:36 60.8 °F 59 °F 29.9 in WSW 7.4 mph 16.8 mph 91% 0 in
01:41 60.6 °F 59 °F 29.9 in WSW 10.3 mph 15.4 mph 92% 0 in
01:46 60.6 °F 59 °F 29.9 in SW 7.8 mph 12.5 mph 92% 0 in
01:51 60.6 °F 59 °F 29.9 in SSW 10.7 mph 14.8 mph 92% 0 in
01:56 60.6 °F 59 °F 29.9 in WSW 10.3 mph 14.8 mph 92% 0 in
02:01 60.6 °F 59 °F 29.9 in West 9.8 mph 16.6 mph 92% 0 in
02:06 60.6 °F 59 °F 29.9 in WSW 10.7 mph 16.6 mph 92% 0 in
02:11 60.6 °F 59 °F 29.9 in WSW 13 mph 13 mph 92% 0 in
02:16 60.6 °F 59 °F 29.9 in SW 6.5 mph 13 mph 92% 0 in
02:21 60.6 °F 59 °F 29.9 in WSW 5.6 mph 14.1 mph 92% 0 in
02:26 60.6 °F 59 °F 29.9 in WSW 4.9 mph 14.1 mph 92% 0 in
02:31 60.6 °F 59 °F 29.9 in West 8.1 mph 11.2 mph 92% 0 in
02:36 60.6 °F 59 °F 29.9 in West 6.5 mph 11.2 mph 92% 0 in
02:41 60.6 °F 59 °F 29.9 in WSW 10.7 mph 10.7 mph 92% 0 in
02:46 60.6 °F 59 °F 30 in WSW 8.7 mph 11 mph 92% 0 in
02:51 60.6 °F 59 °F 30 in WSW 8.7 mph 11 mph 92% 0 in
02:56 60.6 °F 59 °F 30 in West 9.8 mph 11 mph 92% 0 in
03:02 32 °F 59 °F 0 in WSW 8.7 mph 10.3 mph 0% 0 in
03:07 32 °F 59 °F 30 in WSW 7.8 mph 14.5 mph 0% 0 in
03:12 32 °F 59 °F 30 in West 6 mph 14.5 mph 0% 0 in
03:17 32 °F 59 °F 30 in West 10.1 mph 12.5 mph 0% 0 in
03:22 32 °F 59 °F 30 in West 7.4 mph 12.5 mph 0% 0 in
03:27 32 °F 59 °F 30 in WSW 7.6 mph 12.1 mph 0% 0 in
03:32 32 °F 59 °F 30 in WSW 10.1 mph 12.1 mph 0% 0 in
03:37 32 °F 59 °F 30 in WSW 7.6 mph 13.2 mph 0% 0 in
03:43 58.5 °F 57.2 °F 30 in WSW 10.7 mph 13.4 mph 93% 0 in
03:48 58.5 °F 57.2 °F 30 in West 10.1 mph 14.3 mph 93% 0 in
03:53 58.5 °F 57.2 °F 30 in West 10.1 mph 14.3 mph 93% 0 in
03:58 58.5 °F 57.2 °F 30 in West 8.1 mph 15.4 mph 93% 0 in
04:03 58.1 °F 55.4 °F 30 in WSW 8.5 mph 15.4 mph 92% 0 in
04:08 57.9 °F 55.4 °F 30 in WNW 6.5 mph 13.6 mph 92% 0 in
04:13 57.7 °F 55.4 °F 30 in WSW 8.5 mph 13.6 mph 90% 0 in
04:23 57.2 °F 53.6 °F 30 in West 5.8 mph 15.4 mph 85% 0 in
04:28 57 °F 53.6 °F 30 in West 6.3 mph 11 mph 85% 0 in
04:33 57 °F 53.6 °F 30 in West 7.8 mph 11 mph 85% 0 in
04:38 57 °F 53.6 °F 30 in West 1.3 mph 8.5 mph 85% 0 in
04:43 55.8 °F 51.8 °F 30 in Calm   8.5 mph 85% 0 in
04:48 55.4 °F 51.8 °F 30 in West 5.6 mph 7.8 mph 85% 0 in
04:53 55.4 °F 51.8 °F 30 in West 5.8 mph 7.8 mph 85% 0 in
04:58 55.4 °F 51.8 °F 30 in West 3.8 mph 7.4 mph 85% 0 in
05:03 54.5 °F 51.8 °F 30 in West 3.4 mph 6.5 mph 86% 0 in
05:08 53.8 °F 50 °F 30 in West 4.7 mph 5.8 mph 86% 0 in
05:14 53.4 °F 50 °F 30 in Calm   5.8 mph 87% 0 in
05:19 53.1 °F 50 °F 30 in Calm   5.8 mph 88% 0 in
05:22 52.9 °F 50 °F 30 in Calm   4 mph 89% 0 in
05:23 52.9 °F 50 °F 30 in Calm   4 mph 89% 0 in
05:28 52.5 °F 50 °F 30 in Calm   3.6 mph 89% 0 in
05:33 52 °F 48.2 °F 30.1 in Calm   4.5 mph 90% 0 in
05:38 52 °F 48.2 °F 30.1 in Calm   4.5 mph 90% 0 in
05:43 51.4 °F 48.2 °F 30.1 in Calm   3.4 mph 91% 0 in
05:48 51.3 °F 48.2 °F 30 in Calm   3.4 mph 92% 0 in
05:53 51.4 °F 50 °F 30 in WSW 5.4 mph 6 mph 93% 0 in
05:58 51.6 °F 50 °F 30 in West 6 mph 6.5 mph 94% 0 in
06:03 51.6 °F 50 °F 30 in WSW 6.5 mph 6.7 mph 94% 0 in
06:08 51.8 °F 50 °F 30 in West 6.3 mph 6.7 mph 94% 0 in
06:09 51.8 °F 50 °F 30 in West 5.8 mph 6.7 mph 94% 0 in
06:14 52 °F 50 °F 30 in West 5.8 mph 7.4 mph 94% 0 in
06:19 52 °F 50 °F 30 in West 4.3 mph 7.4 mph 95% 0 in
06:24 51.8 °F 50 °F 30 in WSW 1.1 mph 6 mph 94% 0 in
06:29 51.6 °F 50 °F 30 in Calm   5.8 mph 95% 0 in
06:35 51.6 °F 50 °F 30.1 in Calm   5.8 mph 95% 0 in
06:40 51.1 °F 50 °F 30.1 in Calm   3.4 mph 94% 0 in
06:45 50.7 °F 48.2 °F 30.1 in Calm     94% 0 in
06:50 50.5 °F 48.2 °F 30.1 in Calm     94% 0 in
06:55 50.5 °F 48.2 °F 30.1 in Calm   3.4 mph 94% 0 in
07:00 50.5 °F 48.2 °F 30.1 in Calm   4 mph 94% 0 in
07:05 50.5 °F 48.2 °F 30.1 in Calm   4 mph 94% 0 in
07:10 50.5 °F 48.2 °F 30.1 in Calm     94% 0 in
07:15 50.5 °F 48.2 °F 30.1 in West 2.5 mph 2.5 mph 94% 0 in
07:20 50.5 °F 48.2 °F 30.1 in Calm   3.8 mph 94% 0 in
07:25 50.5 °F 48.2 °F 30.1 in Calm   3.8 mph 94% 0 in
07:30 50.5 °F 48.2 °F 30.1 in WSW 3.6 mph 3.8 mph 94% 0 in
07:35 50.5 °F 48.2 °F 30.1 in West 1.6 mph 4.7 mph 94% 0 in
07:40 50.5 °F 48.2 °F 30.1 in Calm   5.4 mph 94% 0 in
07:45 50.5 °F 48.2 °F 30.1 in Calm   5.4 mph 94% 0 in
07:50 50.5 °F 48.2 °F 30.1 in Calm   1.6 mph 94% 0 in
07:56 49.8 °F 50 °F 30.1 in Calm   1.3 mph 96% 0 in
08:01 49.5 °F 48.2 °F 30.1 in WSW 1.3 mph 1.3 mph 96% 0 in
08:06 49.5 °F 48.2 °F 30.1 in West 2.9 mph 2.9 mph 96% 0 in
08:11 49.5 °F 48.2 °F 30.1 in Calm   4 mph 96% 0 in
08:16 49.5 °F 48.2 °F 30.1 in Calm   4 mph 96% 0 in
08:21 49.5 °F 48.2 °F 30.1 in Calm   2 mph 96% 0 in
08:26 49.5 °F 48.2 °F 30.1 in Calm     96% 0 in
08:31 49.5 °F 48.2 °F 30.1 in Calm     96% 0 in
08:36 49.5 °F 48.2 °F 30.1 in Calm     96% 0 in
08:41 49.5 °F 48.2 °F 30.1 in Calm     96% 0 in
08:46 49.5 °F 48.2 °F 30.1 in Calm     96% 0 in
08:56 49.5 °F 48.2 °F 30.1 in Calm     96% 0 in
09:01 49.8 °F 50 °F 30.1 in Calm     98% 0 in
09:06 49.8 °F 50 °F 30.1 in Calm     98% 0 in
09:11 50.7 °F 50 °F 30.1 in Calm     98% 0 in
09:16 51.4 °F 51.8 °F 30.1 in Calm   2.9 mph 98% 0 in
09:21 52.2 °F 51.8 °F 30.1 in West 2.9 mph 5.4 mph 98% 0 in
09:26 52.9 °F 53.6 °F 30.1 in Calm   5.4 mph 98% 0 in
09:31 53.1 °F 53.6 °F 30.2 in Calm   5.4 mph 98% 0 in
09:37 53.8 °F 53.6 °F 30.2 in Calm   5.4 mph 98% 0 in
09:42 54.5 °F 55.4 °F 30.2 in West 5.4 mph 5.8 mph 98% 0 in
09:47 54.9 °F 55.4 °F 30.2 in West 4 mph 8.1 mph 98% 0 in
09:52 55.4 °F 55.4 °F 30.2 in West 4.7 mph 8.1 mph 96% 0 in
09:57 55.8 °F 55.4 °F 30.2 in West 4 mph 6.5 mph 96% 0 in
10:02 56.5 °F 55.4 °F 30.2 in West 1.1 mph 5.8 mph 96% 0 in
10:07 56.8 °F 55.4 °F 30.2 in Calm   6 mph 95% 0 in
10:12 57.2 °F 55.4 °F 30.2 in West 4.9 mph 6.3 mph 94% 0 in
10:16 57.4 °F 55.4 °F 30.2 in West 4.9 mph 7.8 mph 93% 0 in
10:21 57.7 °F 55.4 °F 30.2 in WSW 6.5 mph 8.5 mph 93% 0 in
10:26 57.9 °F 55.4 °F 30.2 in West 6 mph 8.5 mph 92% 0 in
10:31 58.5 °F 55.4 °F 30.1 in West 4.5 mph 7.8 mph 92% 0 in
10:36 58.8 °F 57.2 °F 30.1 in WSW 3.8 mph 7.8 mph 91% 0 in
10:41 59.2 °F 55.4 °F 30.1 in West 5.8 mph 7.6 mph 90% 0 in
10:46 59.5 °F 55.4 °F 30.2 in West 6.3 mph 8.5 mph 88% 0 in
10:51 59.5 °F 55.4 °F 30.2 in WSW 4.9 mph 8.7 mph 87% 0 in
10:56 59.9 °F 57.2 °F 30.2 in WSW 5.8 mph 8.7 mph 87% 0 in
11:01 60.6 °F 57.2 °F 30.2 in SW 5.8 mph 7.4 mph 87% 0 in
11:06 61 °F 55.4 °F 30.2 in WSW 7.4 mph 10.7 mph 84% 0 in
11:11 61.2 °F 55.4 °F 30.2 in WSW 5.6 mph 10.7 mph 83% 0 in
11:16 61.5 °F 55.4 °F 30.2 in WSW 5.4 mph 7.8 mph 83% 0 in
11:21 61.7 °F 57.2 °F 30.2 in WSW 6.3 mph 8.1 mph 82% 0 in
11:26 61.9 °F 57.2 °F 30.2 in West 7.6 mph 8.5 mph 82% 0 in
11:31 62.2 °F 55.4 °F 30.2 in West 6.5 mph 8.5 mph 81% 0 in
11:36 62.6 °F 55.4 °F 30.2 in WSW 5.8 mph 11 mph 78% 0 in
11:41 62.4 °F 55.4 °F 30.2 in West 7.8 mph 11 mph 76% 0 in
11:46 62.6 °F 55.4 °F 30.2 in West 7.6 mph 10.7 mph 75% 0 in
11:51 62.6 °F 55.4 °F 30.2 in WSW 8.7 mph 10.5 mph 74% 0 in
11:56 62.8 °F 53.6 °F 30.2 in West 7.6 mph 13 mph 73% 0 in
12:02 63.3 °F 55.4 °F 30.2 in West 7.4 mph 13 mph 74% 0 in
12:07 63.9 °F 55.4 °F 30.2 in WSW 10.1 mph 11 mph 73% 0 in
12:12 64.4 °F 55.4 °F 30.2 in WSW 7.8 mph 11 mph 72% 0 in
12:15 64.6 °F 55.4 °F 30.2 in WSW 8.7 mph 11 mph 72% 0 in
12:20 64.8 °F 55.4 °F 30.2 in West 12.8 mph 12.8 mph 71% 0 in
12:25 64.4 °F 53.6 °F 30.2 in West 9.6 mph 12.8 mph 68% 0 in
12:30 64.8 °F 55.4 °F 30.2 in West 7.6 mph 11.9 mph 68% 0 in
12:35 65.5 °F 55.4 °F 30.2 in West 9.6 mph 11.9 mph 68% 0 in
12:40 65.7 °F 55.4 °F 30.2 in West 5.6 mph 10.5 mph 68% 0 in
12:45 65.5 °F 55.4 °F 30.2 in West 2.7 mph 10.5 mph 68% 0 in
12:50 66.2 °F 55.4 °F 30.2 in SW 8.1 mph 8.5 mph 68% 0 in
12:55 66 °F 53.6 °F 30.2 in SW 7.8 mph 13 mph 64% 0 in
13:00 64.9 °F 51.8 °F 30.2 in WSW 8.5 mph 13 mph 63% 0 in
13:05 64.4 °F 53.6 °F 30.2 in WSW 7.8 mph 10.7 mph 65% 0 in
13:10 64.2 °F 53.6 °F 30.2 in WSW 3.1 mph 8.7 mph 67% 0 in
13:16 65.3 °F 53.6 °F 30.2 in West 7.2 mph 8.7 mph 66% 0 in
13:21 66 °F 55.4 °F 30.2 in West 0.9 mph 8.7 mph 65% 0 in
13:26 66.2 °F 53.6 °F 30.2 in SW 9.6 mph 12.3 mph 62% 0 in
13:31 66.2 °F 51.8 °F 30.2 in West 9.8 mph 14.8 mph 60% 0 in
13:36 67.1 °F 53.6 °F 30.2 in WSW 10.5 mph 14.8 mph 60% 0 in
13:41 67.1 °F 51.8 °F 30.2 in West 7.4 mph 12.3 mph 58% 0 in
13:46 67.1 °F 51.8 °F 30.2 in West 8.7 mph 12.3 mph 57% 0 in
13:51 67.1 °F 51.8 °F 30.2 in West 7.8 mph 13 mph 56% 0 in
13:56 67.1 °F 51.8 °F 30.2 in WSW 10.3 mph 14.8 mph 57% 0 in
14:06 66.9 °F 51.8 °F 30.2 in WSW 6.3 mph 15.7 mph 59% 0 in
14:11 66.9 °F 51.8 °F 30.2 in WSW 10.7 mph 12.5 mph 57% 0 in
14:16 66.9 °F 51.8 °F 30.2 in WSW 13.2 mph 13.2 mph 59% 0 in
14:22 66 °F 50 °F 30.2 in West 7.4 mph 13.2 mph 57% 0 in
14:27 65.8 °F 51.8 °F 30.2 in West 10.1 mph 14.3 mph 59% 0 in
14:32 66.4 °F 51.8 °F 30.2 in WSW 11.4 mph 14.3 mph 60% 0 in
14:37 66.4 °F 51.8 °F 30.2 in West 12.8 mph 15.2 mph 60% 0 in
14:42 65.8 °F 51.8 °F 30.2 in West 9.4 mph 15.2 mph 61% 0 in
14:47 66.4 °F 53.6 °F 30.2 in West 9.8 mph 13.4 mph 62% 0 in
14:52 66.2 °F 53.6 °F 30.2 in WSW 10.3 mph 13 mph 62% 0 in
14:57 65.5 °F 51.8 °F 30.2 in West 9.8 mph 13 mph 62% 0 in
15:02 64.8 °F 51.8 °F 30.2 in West 8.7 mph 14.3 mph 62% 0 in
15:07 64.8 °F 51.8 °F 30.2 in WSW 7.2 mph 14.3 mph 62% 0 in
15:12 65.8 °F 53.6 °F 30.2 in WSW 8.5 mph 13.2 mph 65% 0 in
15:17 65.8 °F 53.6 °F 30.2 in WSW 7.6 mph 13.2 mph 65% 0 in
15:22 66.6 °F 53.6 °F 30.2 in WSW 9.2 mph 13.2 mph 63% 0 in
15:27 66.6 °F 53.6 °F 30.2 in West 7.4 mph 11.2 mph 63% 0 in
15:32 64.9 °F 53.6 °F 30.2 in WSW 6.5 mph 10.7 mph 64% 0 in
15:37 65.7 °F 53.6 °F 30.2 in West 7.4 mph 12.5 mph 63% 0 in
15:42 66.4 °F 53.6 °F 30.2 in SW 8.9 mph 13.2 mph 64% 0 in
15:47 66.9 °F 53.6 °F 30.2 in WSW 7.8 mph 13.2 mph 63% 0 in
15:52 66.7 °F 51.8 °F 30.2 in WSW 10.5 mph 15.9 mph 59% 0 in
15:55 66.6 °F 51.8 °F 30.2 in WSW 9.8 mph 17.4 mph 59% 0 in
16:00 66.6 °F 53.6 °F 30.2 in WSW 10.5 mph 17.4 mph 60% 0 in
16:10 66.7 °F 53.6 °F 30.2 in SSW 12.8 mph 15.4 mph 62% 0 in
16:15 66.9 °F 53.6 °F 30.2 in West 8.1 mph 12.8 mph 60% 0 in
16:20 66.6 °F 51.8 °F 30.2 in West 7.8 mph 14.8 mph 58% 0 in
16:25 66.2 °F 51.8 °F 30.2 in West 12.3 mph 14.8 mph 58% 0 in
16:30 66.2 °F 51.8 °F 30.2 in WSW 15.2 mph 15.2 mph 59% 0 in
16:35 66 °F 51.8 °F 30.2 in West 12.5 mph 15.2 mph 60% 0 in
16:38 66 °F 51.8 °F 30.2 in WSW 10.1 mph 15.2 mph 60% 0 in
16:43 65.3 °F 51.8 °F 30.2 in West 7.2 mph 13.2 mph 62% 0 in
16:48 65.5 °F 51.8 °F 30.2 in WSW 12.1 mph 12.1 mph 62% 0 in
16:53 65.5 °F 51.8 °F 30.2 in WSW 10.1 mph 12.8 mph 62% 0 in
16:58 64.9 °F 51.8 °F 30.2 in West 10.7 mph 12.8 mph 61% 0 in
17:03 64.9 °F 51.8 °F 30.2 in WSW 11.2 mph 12.3 mph 61% 0 in
17:08 64.8 °F 51.8 °F 30.2 in West 10.1 mph 15.4 mph 63% 0 in
17:13 64.8 °F 51.8 °F 30.2 in West 8.1 mph 15.4 mph 63% 0 in
17:18 64.8 °F 53.6 °F 30.2 in WSW 5.8 mph 13 mph 64% 0 in
17:23 64.6 °F 51.8 °F 30.2 in WSW 6.7 mph 11 mph 63% 0 in
17:28 64.6 °F 51.8 °F 30.2 in WSW 8.5 mph 13 mph 63% 0 in
17:33 64 °F 51.8 °F 30.2 in WSW 10.1 mph 14.8 mph 63% 0 in
17:38 63.9 °F 51.8 °F 30.2 in WSW 8.5 mph 14.8 mph 64% 0 in
17:43 63.7 °F 51.8 °F 30.2 in WSW 8.1 mph 12.5 mph 64% 0 in
17:48 63.5 °F 51.8 °F 30.2 in WSW 12.5 mph 12.5 mph 65% 0 in
17:53 63.1 °F 51.8 °F 30.2 in SW 11.9 mph 13.4 mph 64% 0 in
17:58 63 °F 51.8 °F 30.2 in WSW 7.8 mph 13.4 mph 65% 0 in
18:04 62.6 °F 51.8 °F 30.2 in West 12.5 mph 16.3 mph 66% 0 in
18:09 62.4 °F 51.8 °F 30.2 in WSW 8.9 mph 16.3 mph 66% 0 in
18:14 61.9 °F 51.8 °F 30.2 in West 9.8 mph 12.5 mph 67% 0 in
18:19 61.7 °F 51.8 °F 30.2 in WSW 6.5 mph 12.3 mph 67% 0 in
18:24 61.3 °F 50 °F 30.2 in West 8.1 mph 12.3 mph 67% 0 in
18:29 61 °F 50 °F 30.2 in WSW 6.5 mph 10.7 mph 67% 0 in
18:34 60.6 °F 50 °F 30.2 in West 5.4 mph 9.6 mph 69% 0 in
18:39 60.3 °F 50 °F 30.2 in West 3.8 mph 7.8 mph 69% 0 in
18:41 60.1 °F 50 °F 30.2 in West 6.3 mph 7.4 mph 70% 0 in
18:46 59.7 °F 50 °F 30.2 in WSW 3.8 mph 6.5 mph 70% 0 in
18:51 59.2 °F 50 °F 30.2 in WSW 4 mph 6.5 mph 71% 0 in
18:56 58.8 °F 50 °F 30.2 in Calm   6.3 mph 72% 0 in
19:01 58.3 °F 50 °F 30.2 in WSW 4.3 mph 6.3 mph 73% 0 in
19:06 57.9 °F 50 °F 30.2 in Calm   4.9 mph 74% 0 in
19:11 57.7 °F 50 °F 30.2 in Calm   4.7 mph 74% 0 in
19:16 57.4 °F 50 °F 30.2 in Calm   3.6 mph 75% 0 in
19:21 57.2 °F 50 °F 30.2 in Calm   3.8 mph 76% 0 in
19:26 56.8 °F 50 °F 30.2 in Calm   3.8 mph 78% 0 in
19:31 56.8 °F 50 °F 30.2 in Calm     78% 0 in
19:36 56.5 °F 50 °F 30.2 in Calm     78% 0 in
19:41 56.1 °F 50 °F 30.2 in Calm     79% 0 in
19:46 55.9 °F 50 °F 30.2 in Calm     80% 0 in
19:51 55.6 °F 50 °F 30.2 in Calm     80% 0 in
19:56 55.2 °F 50 °F 30.2 in Calm     81% 0 in
20:01 54.9 °F 50 °F 30.2 in Calm     81% 0 in
20:06 54.5 °F 50 °F 30.2 in Calm     82% 0 in
20:11 54.3 °F 50 °F 30.2 in Calm     82% 0 in
20:16 54.3 °F 50 °F 30.2 in Calm   2.5 mph 83% 0 in
20:21 54 °F 48.2 °F 30.2 in Calm   2.5 mph 83% 0 in
20:26 53.8 °F 50 °F 30.2 in Calm   0.9 mph 84% 0 in
20:30 53.6 °F 50 °F 30.2 in Calm   0.9 mph 84% 0 in
20:31 53.6 °F 50 °F 30.2 in Calm   0.9 mph 84% 0 in
20:37 53.6 °F 50 °F 30.2 in Calm     85% 0 in
20:42 53.6 °F 50 °F 30.2 in Calm     85% 0 in
20:47 53.2 °F 48.2 °F 30.2 in Calm     85% 0 in
20:52 53.1 °F 48.2 °F 30.2 in Calm     85% 0 in
20:57 52.9 °F 48.2 °F 30.2 in Calm   2.7 mph 86% 0 in
21:02 52.9 °F 50 °F 30.2 in Calm   2.7 mph 87% 0 in
21:07 52.9 °F 50 °F 30.2 in SW 3.8 mph 3.8 mph 88% 0 in
21:12 53.1 °F 50 °F 30.2 in Calm   3.8 mph 89% 0 in
21:17 53.4 °F 50 °F 30.2 in SSW 3.1 mph 3.8 mph 90% 0 in
21:22 53.8 °F 51.8 °F 30.2 in Calm   3.4 mph 90% 0 in
21:27 54 °F 51.8 °F 30.2 in Calm   3.4 mph 89% 0 in
21:32 54 °F 51.8 °F 30.2 in Calm     90% 0 in
21:37 54.1 °F 51.8 °F 30.2 in Calm     90% 0 in
21:38 54.1 °F 51.8 °F 30.2 in Calm     90% 0 in
21:43 54.1 °F 51.8 °F 30.2 in Calm   3.8 mph 89% 0 in
21:48 54 °F 51.8 °F 30.2 in Calm   4.9 mph 89% 0 in
21:53 54 °F 51.8 °F 30.2 in Calm   4.9 mph 90% 0 in
21:58 54 °F 51.8 °F 30.2 in Calm   4.3 mph 89% 0 in
22:03 53.6 °F 51.8 °F 30.2 in Calm   2 mph 89% 0 in
22:08 53.2 °F 50 °F 30.2 in Calm   3.1 mph 89% 0 in
22:13 52.7 °F 50 °F 30.2 in Calm   3.1 mph 89% 0 in
22:18 52.5 °F 50 °F 30.2 in Calm     89% 0 in
22:23 52.2 °F 50 °F 30.2 in Calm     89% 0 in
22:28 52 °F 48.2 °F 30.2 in Calm     89% 0 in
22:33 51.6 °F 48.2 °F 30.2 in Calm     90% 0 in
22:38 51.4 °F 48.2 °F 30.2 in Calm     90% 0 in
22:43 51.4 °F 48.2 °F 30.2 in Calm     91% 0 in
22:48 51.3 °F 48.2 °F 30.2 in Calm     91% 0 in
22:53 51.3 °F 48.2 °F 30.2 in Calm     91% 0 in
22:58 51.6 °F 50 °F 30.2 in Calm     92% 0 in
23:03 51.6 °F 50 °F 30.2 in Calm     93% 0 in
23:08 52.2 °F 50 °F 30.2 in Calm   1.1 mph 93% 0 in
23:14 52.7 °F 51.8 °F 30.2 in Calm   1.1 mph 94% 0 in
23:19 53.4 °F 51.8 °F 30.2 in Calm     94% 0 in
23:24 54.1 °F 53.6 °F 30.2 in SSW 2.5 mph 3.4 mph 94% 0 in
23:29 54.5 °F 53.6 °F 30.2 in Calm   3.4 mph 94% 0 in
23:35 54.9 °F 53.6 °F 30.2 in Calm   6.3 mph 94% 0 in
23:40 55.2 °F 53.6 °F 30.2 in Calm   6.3 mph 94% 0 in
23:44 55.6 °F 53.6 °F 30.2 in WSW 2.2 mph 4.3 mph 93% 0 in
23:49 55.6 °F 53.6 °F 30.2 in Calm   5.6 mph 93% 0 in
23:55 55.9 °F 55.4 °F 30.2 in Calm   5.6 mph 93% 0 in
Données Historique de Météo Turbie

Mise a jour : 21/06/2018 04:36:12
Généré par Cumulus 1.9.4 (1099)